Dundee, Kentucky
Current Conditions -  °F | °C
As of 1:03 AM on Saturday 20 Dec 2014 (Local Time) from KOWB Reporting Station
Unknown Precip Unknown Precip  
Wind Chill: 26°   Ceiling: 6500
Heat Index: 32°   Visibility: 10mi
Dew Point: 25°   Wind: 6mph
Humidity: 75%   Direction: 30°NNE
Pressure: 30.27"   Gusts: NA
Location:  37.56°N, 86.77°W
Report Text: KOWB 200703Z AUTO 03005KT 10SM UP FEW016 SCT026 BKN065 00/M04 A3027 RMK AO2 TSNO P0000
Loading
Personal Weather Stations






























Interactive Weather Map New forecast layout! Learn more

10-Day Weather Forecast

Advertisements
Track Severe Weather on mobile